createdAt,value
2022-09-12T00:08:14.027Z,18.4
2022-09-12T00:38:32.834Z,16.4
2022-09-12T01:08:49.849Z,17.8
2022-09-12T01:39:07.513Z,18.3
2022-09-12T02:09:25.278Z,14.9
2022-09-12T02:39:45.112Z,17.6
2022-09-12T03:10:03.756Z,20.6
2022-09-12T03:40:20.804Z,24.3
2022-09-12T04:10:38.726Z,29.8
2022-09-12T04:40:56.065Z,27.1
2022-09-12T05:11:14.088Z,21.2
2022-09-12T05:41:32.607Z,11.9
2022-09-12T06:11:52.386Z,14.7
2022-09-12T06:42:19.424Z,11.3
2022-09-12T07:12:45.535Z,7.4
2022-09-12T07:43:09.358Z,9.7
2022-09-12T08:13:29.096Z,9.7
2022-09-12T08:43:56.082Z,11.5
2022-09-12T09:14:16.483Z,9.9
2022-09-12T09:44:38.274Z,10.8
2022-09-12T10:14:56.959Z,8.1
2022-09-12T10:45:19.741Z,5.5
2022-09-12T11:15:42.682Z,5.7
2022-09-12T11:46:01.012Z,4.3
2022-09-12T12:16:22.902Z,3.7
2022-09-12T12:46:43.769Z,4.9
2022-09-12T13:17:00.365Z,2.3
2022-09-12T13:46:55.296Z,3.1
2022-09-12T14:17:07.723Z,2.8
2022-09-12T14:47:25.387Z,2.9
2022-09-12T15:17:42.090Z,3.3
2022-09-12T15:47:59.618Z,4.6
2022-09-12T16:18:18.075Z,3.8
2022-09-12T16:48:36.559Z,8.5
2022-09-12T17:18:52.072Z,7.5
2022-09-12T17:49:08.832Z,3.4
2022-09-12T18:19:25.419Z,4.3
2022-09-12T18:49:43.223Z,4.8
2022-09-12T19:19:59.933Z,4.7
2022-09-12T19:50:15.413Z,9.4
2022-09-12T20:20:31.533Z,7.8
2022-09-12T20:50:49.418Z,9
2022-09-12T21:21:18.872Z,9.4
2022-09-12T21:51:35.221Z,11
2022-09-12T22:21:53.759Z,7.8
2022-09-12T22:52:10.679Z,13.7
2022-09-12T23:22:27.778Z,7.3
2022-09-12T23:52:51.271Z,8.3
